sensor_id;sensor_type;location;lat;lon;timestamp;temperature;humidity
22321;DHT22;11328;53.928;18.522;2023-03-30T00:01:17;8.00;99.90
22321;DHT22;11328;53.928;18.522;2023-03-30T00:03:45;8.00;99.90
22321;DHT22;11328;53.928;18.522;2023-03-30T00:06:15;8.00;99.90
22321;DHT22;11328;53.928;18.522;2023-03-30T00:08:50;7.90;99.90
22321;DHT22;11328;53.928;18.522;2023-03-30T00:11:19;7.90;99.90
22321;DHT22;11328;53.928;18.522;2023-03-30T00:13:49;7.90;99.90
22321;DHT22;11328;53.928;18.522;2023-03-30T00:16:17;7.90;99.90
22321;DHT22;11328;53.928;18.522;2023-03-30T00:18:45;7.90;99.90
22321;DHT22;11328;53.928;18.522;2023-03-30T00:21:12;7.90;99.90
22321;DHT22;11328;53.928;18.522;2023-03-30T00:23:44;7.90;99.90
22321;DHT22;11328;53.928;18.522;2023-03-30T00:26:14;7.90;99.90
22321;DHT22;11328;53.928;18.522;2023-03-30T00:28:42;7.90;99.90
22321;DHT22;11328;53.928;18.522;2023-03-30T00:31:09;7.90;99.90
22321;DHT22;11328;53.928;18.522;2023-03-30T00:33:37;7.90;99.90
22321;DHT22;11328;53.928;18.522;2023-03-30T00:36:13;7.90;99.90
22321;DHT22;11328;53.928;18.522;2023-03-30T00:38:41;7.90;99.90
22321;DHT22;11328;53.928;18.522;2023-03-30T00:41:08;7.90;99.90
22321;DHT22;11328;53.928;18.522;2023-03-30T00:43:57;7.90;99.90
22321;DHT22;11328;53.928;18.522;2023-03-30T00:46:27;7.90;99.90
22321;DHT22;11328;53.928;18.522;2023-03-30T00:49:02;7.80;99.90
22321;DHT22;11328;53.928;18.522;2023-03-30T00:51:34;7.80;99.90
22321;DHT22;11328;53.928;18.522;2023-03-30T00:54:08;7.80;99.90
22321;DHT22;11328;53.928;18.522;2023-03-30T00:56:39;7.80;99.90
22321;DHT22;11328;53.928;18.522;2023-03-30T00:59:06;7.80;99.90
22321;DHT22;11328;53.928;18.522;2023-03-30T01:01:34;7.80;99.90
22321;DHT22;11328;53.928;18.522;2023-03-30T01:04:06;7.70;99.90
22321;DHT22;11328;53.928;18.522;2023-03-30T01:06:36;7.80;99.90
22321;DHT22;11328;53.928;18.522;2023-03-30T01:09:06;7.70;99.90
22321;DHT22;11328;53.928;18.522;2023-03-30T01:11:33;7.70;99.90
22321;DHT22;11328;53.928;18.522;2023-03-30T01:14:05;7.70;99.90
22321;DHT22;11328;53.928;18.522;2023-03-30T01:23:21;7.60;99.90
22321;DHT22;11328;53.928;18.522;2023-03-30T01:26:09;7.60;99.90
22321;DHT22;11328;53.928;18.522;2023-03-30T01:28:59;7.50;99.90
22321;DHT22;11328;53.928;18.522;2023-03-30T01:40:14;7.40;99.90
22321;DHT22;11328;53.928;18.522;2023-03-30T01:42:56;7.40;99.90
22321;DHT22;11328;53.928;18.522;2023-03-30T01:48:24;7.40;99.90
22321;DHT22;11328;53.928;18.522;2023-03-30T01:51:05;7.40;99.90
22321;DHT22;11328;53.928;18.522;2023-03-30T01:53:44;7.30;99.90
22321;DHT22;11328;53.928;18.522;2023-03-30T01:56:26;7.30;99.90
22321;DHT22;11328;53.928;18.522;2023-03-30T01:59:14;7.30;99.90
22321;DHT22;11328;53.928;18.522;2023-03-30T02:01:49;7.30;99.90
22321;DHT22;11328;53.928;18.522;2023-03-30T02:04:21;7.30;99.90
22321;DHT22;11328;53.928;18.522;2023-03-30T02:06:54;7.40;99.90
22321;DHT22;11328;53.928;18.522;2023-03-30T02:09:26;7.40;99.90
22321;DHT22;11328;53.928;18.522;2023-03-30T02:11:55;7.30;99.90
22321;DHT22;11328;53.928;18.522;2023-03-30T02:14:26;7.30;99.90
22321;DHT22;11328;53.928;18.522;2023-03-30T02:17:04;7.30;99.90
22321;DHT22;11328;53.928;18.522;2023-03-30T02:19:39;7.30;99.90
22321;DHT22;11328;53.928;18.522;2023-03-30T02:22:07;7.30;99.90
22321;DHT22;11328;53.928;18.522;2023-03-30T02:24:35;7.30;99.90
22321;DHT22;11328;53.928;18.522;2023-03-30T02:27:02;7.30;99.90
22321;DHT22;11328;53.928;18.522;2023-03-30T02:29:30;7.20;99.90
22321;DHT22;11328;53.928;18.522;2023-03-30T02:31:59;7.30;99.90
22321;DHT22;11328;53.928;18.522;2023-03-30T02:34:40;7.20;99.90
22321;DHT22;11328;53.928;18.522;2023-03-30T02:51:53;7.20;99.90
22321;DHT22;11328;53.928;18.522;2023-03-30T02:57:26;7.20;99.90
22321;DHT22;11328;53.928;18.522;2023-03-30T03:00:00;7.30;99.90
22321;DHT22;11328;53.928;18.522;2023-03-30T03:02:42;7.30;99.90
22321;DHT22;11328;53.928;18.522;2023-03-30T03:05:14;7.30;99.90
22321;DHT22;11328;53.928;18.522;2023-03-30T03:07:42;7.40;99.90
22321;DHT22;11328;53.928;18.522;2023-03-30T03:10:10;7.40;99.90
22321;DHT22;11328;53.928;18.522;2023-03-30T03:12:37;7.30;99.90
22321;DHT22;11328;53.928;18.522;2023-03-30T03:15:05;7.40;99.90
22321;DHT22;11328;53.928;18.522;2023-03-30T03:17:32;7.30;99.90
22321;DHT22;11328;53.928;18.522;2023-03-30T03:20:05;7.30;99.90
22321;DHT22;11328;53.928;18.522;2023-03-30T03:22:36;7.30;99.90
22321;DHT22;11328;53.928;18.522;2023-03-30T03:25:03;7.40;99.90
22321;DHT22;11328;53.928;18.522;2023-03-30T03:27:30;7.40;99.90
22321;DHT22;11328;53.928;18.522;2023-03-30T03:29:57;7.30;99.90
22321;DHT22;11328;53.928;18.522;2023-03-30T03:32:24;7.30;99.90
22321;DHT22;11328;53.928;18.522;2023-03-30T03:34:51;7.30;99.90
22321;DHT22;11328;53.928;18.522;2023-03-30T03:37:19;7.30;99.90
22321;DHT22;11328;53.928;18.522;2023-03-30T03:39:46;7.30;99.90
22321;DHT22;11328;53.928;18.522;2023-03-30T03:42:13;7.30;99.90
22321;DHT22;11328;53.928;18.522;2023-03-30T03:44:40;7.30;99.90
22321;DHT22;11328;53.928;18.522;2023-03-30T03:47:06;7.30;99.90
22321;DHT22;11328;53.928;18.522;2023-03-30T03:49:33;7.40;99.90
22321;DHT22;11328;53.928;18.522;2023-03-30T03:52:00;7.30;99.90
22321;DHT22;11328;53.928;18.522;2023-03-30T03:54:27;7.30;99.90
22321;DHT22;11328;53.928;18.522;2023-03-30T03:56:54;7.30;99.90
22321;DHT22;11328;53.928;18.522;2023-03-30T03:59:21;7.30;99.90
22321;DHT22;11328;53.928;18.522;2023-03-30T04:01:48;7.30;99.90
22321;DHT22;11328;53.928;18.522;2023-03-30T04:04:15;7.20;99.90
22321;DHT22;11328;53.928;18.522;2023-03-30T04:06:42;7.20;99.90
22321;DHT22;11328;53.928;18.522;2023-03-30T04:09:12;7.10;99.90
22321;DHT22;11328;53.928;18.522;2023-03-30T04:11:39;7.00;99.90
22321;DHT22;11328;53.928;18.522;2023-03-30T04:14:06;7.10;99.90
22321;DHT22;11328;53.928;18.522;2023-03-30T04:16:32;7.00;99.90
22321;DHT22;11328;53.928;18.522;2023-03-30T04:18:59;7.10;99.90
22321;DHT22;11328;53.928;18.522;2023-03-30T04:21:26;7.10;99.90
22321;DHT22;11328;53.928;18.522;2023-03-30T04:23:55;7.20;99.90
22321;DHT22;11328;53.928;18.522;2023-03-30T04:26:22;7.20;99.90
22321;DHT22;11328;53.928;18.522;2023-03-30T04:28:49;7.20;99.90
22321;DHT22;11328;53.928;18.522;2023-03-30T04:31:19;7.20;99.90
22321;DHT22;11328;53.928;18.522;2023-03-30T04:33:48;7.20;99.90
22321;DHT22;11328;53.928;18.522;2023-03-30T04:36:19;7.20;99.90
22321;DHT22;11328;53.928;18.522;2023-03-30T04:38:46;7.30;99.90
22321;DHT22;11328;53.928;18.522;2023-03-30T04:41:29;7.30;99.90
22321;DHT22;11328;53.928;18.522;2023-03-30T04:44:03;7.40;99.90
22321;DHT22;11328;53.928;18.522;2023-03-30T04:46:31;7.40;99.90
22321;DHT22;11328;53.928;18.522;2023-03-30T04:48:59;7.50;99.90
22321;DHT22;11328;53.928;18.522;2023-03-30T04:51:26;7.60;99.90
22321;DHT22;11328;53.928;18.522;2023-03-30T04:53:54;7.70;99.90
22321;DHT22;11328;53.928;18.522;2023-03-30T04:56:21;7.80;99.90
22321;DHT22;11328;53.928;18.522;2023-03-30T04:58:48;7.80;99.90
22321;DHT22;11328;53.928;18.522;2023-03-30T05:01:14;7.90;99.90
22321;DHT22;11328;53.928;18.522;2023-03-30T05:03:41;7.80;99.90
22321;DHT22;11328;53.928;18.522;2023-03-30T05:06:09;7.80;99.90
22321;DHT22;11328;53.928;18.522;2023-03-30T05:08:36;7.80;99.90
22321;DHT22;11328;53.928;18.522;2023-03-30T05:11:07;7.80;99.90
22321;DHT22;11328;53.928;18.522;2023-03-30T05:13:34;7.90;99.90
22321;DHT22;11328;53.928;18.522;2023-03-30T05:16:01;7.90;99.90
22321;DHT22;11328;53.928;18.522;2023-03-30T05:18:28;7.90;99.90
22321;DHT22;11328;53.928;18.522;2023-03-30T05:20:58;7.90;99.90
22321;DHT22;11328;53.928;18.522;2023-03-30T05:23:25;7.90;99.90
22321;DHT22;11328;53.928;18.522;2023-03-30T05:25:52;7.90;99.90
22321;DHT22;11328;53.928;18.522;2023-03-30T05:28:21;7.90;99.90
22321;DHT22;11328;53.928;18.522;2023-03-30T05:30:54;8.00;99.90
22321;DHT22;11328;53.928;18.522;2023-03-30T05:33:21;8.00;99.90
22321;DHT22;11328;53.928;18.522;2023-03-30T05:35:49;8.00;99.90
22321;DHT22;11328;53.928;18.522;2023-03-30T05:38:17;8.00;99.90
22321;DHT22;11328;53.928;18.522;2023-03-30T05:40:44;8.00;99.90
22321;DHT22;11328;53.928;18.522;2023-03-30T05:43:11;8.00;99.90
22321;DHT22;11328;53.928;18.522;2023-03-30T05:45:38;7.90;99.90
22321;DHT22;11328;53.928;18.522;2023-03-30T05:48:05;7.90;99.90
22321;DHT22;11328;53.928;18.522;2023-03-30T05:50:32;7.90;99.90
22321;DHT22;11328;53.928;18.522;2023-03-30T05:52:59;7.90;99.90
22321;DHT22;11328;53.928;18.522;2023-03-30T05:55:27;7.90;99.90
22321;DHT22;11328;53.928;18.522;2023-03-30T05:57:54;7.90;99.90
22321;DHT22;11328;53.928;18.522;2023-03-30T06:00:22;8.00;99.90
22321;DHT22;11328;53.928;18.522;2023-03-30T06:02:49;7.80;99.90
22321;DHT22;11328;53.928;18.522;2023-03-30T06:05:18;7.90;99.90
22321;DHT22;11328;53.928;18.522;2023-03-30T06:07:45;8.00;99.90
22321;DHT22;11328;53.928;18.522;2023-03-30T06:10:12;8.10;99.90
22321;DHT22;11328;53.928;18.522;2023-03-30T06:12:39;8.20;99.90
22321;DHT22;11328;53.928;18.522;2023-03-30T06:15:06;8.20;99.90
22321;DHT22;11328;53.928;18.522;2023-03-30T06:17:35;8.40;99.90
22321;DHT22;11328;53.928;18.522;2023-03-30T06:20:03;8.50;99.90
22321;DHT22;11328;53.928;18.522;2023-03-30T06:22:39;8.60;99.90
22321;DHT22;11328;53.928;18.522;2023-03-30T06:25:08;8.70;99.90
22321;DHT22;11328;53.928;18.522;2023-03-30T06:27:35;8.80;99.90
22321;DHT22;11328;53.928;18.522;2023-03-30T06:30:03;9.00;99.90
22321;DHT22;11328;53.928;18.522;2023-03-30T06:32:30;9.00;99.90
22321;DHT22;11328;53.928;18.522;2023-03-30T06:34:58;9.00;99.90
22321;DHT22;11328;53.928;18.522;2023-03-30T06:37:26;9.00;99.90
22321;DHT22;11328;53.928;18.522;2023-03-30T06:39:52;9.00;99.90
22321;DHT22;11328;53.928;18.522;2023-03-30T06:42:19;9.10;99.90
22321;DHT22;11328;53.928;18.522;2023-03-30T06:44:47;9.30;99.90
22321;DHT22;11328;53.928;18.522;2023-03-30T06:47:15;9.50;99.90
22321;DHT22;11328;53.928;18.522;2023-03-30T06:49:42;9.50;99.90
22321;DHT22;11328;53.928;18.522;2023-03-30T06:52:09;9.70;99.90
22321;DHT22;11328;53.928;18.522;2023-03-30T06:54:37;9.80;99.90
22321;DHT22;11328;53.928;18.522;2023-03-30T06:57:03;9.80;99.90
22321;DHT22;11328;53.928;18.522;2023-03-30T06:59:31;9.90;99.90
22321;DHT22;11328;53.928;18.522;2023-03-30T07:02:00;10.00;99.90
22321;DHT22;11328;53.928;18.522;2023-03-30T07:04:28;10.10;99.90
22321;DHT22;11328;53.928;18.522;2023-03-30T07:06:56;10.20;99.90
22321;DHT22;11328;53.928;18.522;2023-03-30T07:09:23;10.30;99.90
22321;DHT22;11328;53.928;18.522;2023-03-30T07:11:51;10.40;99.90
22321;DHT22;11328;53.928;18.522;2023-03-30T07:14:21;10.50;99.90
22321;DHT22;11328;53.928;18.522;2023-03-30T07:16:48;10.70;99.90
22321;DHT22;11328;53.928;18.522;2023-03-30T07:19:16;10.80;99.90
22321;DHT22;11328;53.928;18.522;2023-03-30T07:21:43;10.80;99.90
22321;DHT22;11328;53.928;18.522;2023-03-30T07:24:11;10.80;99.90
22321;DHT22;11328;53.928;18.522;2023-03-30T07:26:37;11.00;99.90
22321;DHT22;11328;53.928;18.522;2023-03-30T07:29:04;11.00;99.90
22321;DHT22;11328;53.928;18.522;2023-03-30T07:31:32;11.00;99.90
22321;DHT22;11328;53.928;18.522;2023-03-30T07:33:59;11.00;99.90
22321;DHT22;11328;53.928;18.522;2023-03-30T07:36:26;11.10;99.90
22321;DHT22;11328;53.928;18.522;2023-03-30T07:38:53;11.10;99.90
22321;DHT22;11328;53.928;18.522;2023-03-30T07:41:21;11.10;99.90
22321;DHT22;11328;53.928;18.522;2023-03-30T07:43:48;11.20;99.90
22321;DHT22;11328;53.928;18.522;2023-03-30T07:46:14;11.30;99.90
22321;DHT22;11328;53.928;18.522;2023-03-30T07:48:42;11.40;99.90
22321;DHT22;11328;53.928;18.522;2023-03-30T07:51:11;11.50;99.90
22321;DHT22;11328;53.928;18.522;2023-03-30T07:53:39;11.60;99.90
22321;DHT22;11328;53.928;18.522;2023-03-30T07:56:06;11.70;99.90
22321;DHT22;11328;53.928;18.522;2023-03-30T07:58:33;11.70;99.90
22321;DHT22;11328;53.928;18.522;2023-03-30T08:01:00;11.60;99.90
22321;DHT22;11328;53.928;18.522;2023-03-30T08:03:29;11.60;99.90
22321;DHT22;11328;53.928;18.522;2023-03-30T08:06:00;11.80;99.90
22321;DHT22;11328;53.928;18.522;2023-03-30T08:08:31;11.80;99.90
22321;DHT22;11328;53.928;18.522;2023-03-30T08:10:59;12.00;99.90
22321;DHT22;11328;53.928;18.522;2023-03-30T08:13:27;12.10;99.90
22321;DHT22;11328;53.928;18.522;2023-03-30T08:15:53;12.20;99.90
22321;DHT22;11328;53.928;18.522;2023-03-30T08:18:20;12.30;99.90
22321;DHT22;11328;53.928;18.522;2023-03-30T08:20:50;12.40;99.90
22321;DHT22;11328;53.928;18.522;2023-03-30T08:23:20;12.50;99.90
22321;DHT22;11328;53.928;18.522;2023-03-30T08:25:47;12.50;99.90
22321;DHT22;11328;53.928;18.522;2023-03-30T08:28:18;12.60;99.90
22321;DHT22;11328;53.928;18.522;2023-03-30T08:30:47;12.60;99.90
22321;DHT22;11328;53.928;18.522;2023-03-30T08:33:14;12.70;99.90
22321;DHT22;11328;53.928;18.522;2023-03-30T08:35:45;12.80;99.90
22321;DHT22;11328;53.928;18.522;2023-03-30T08:38:13;12.90;99.90
22321;DHT22;11328;53.928;18.522;2023-03-30T08:40:47;13.00;99.90
22321;DHT22;11328;53.928;18.522;2023-03-30T08:46:13;13.60;99.90
22321;DHT22;11328;53.928;18.522;2023-03-30T08:48:43;13.80;99.90
22321;DHT22;11328;53.928;18.522;2023-03-30T08:51:23;14.00;99.90
22321;DHT22;11328;53.928;18.522;2023-03-30T08:53:58;14.20;99.90
22321;DHT22;11328;53.928;18.522;2023-03-30T08:56:56;14.30;99.90
22321;DHT22;11328;53.928;18.522;2023-03-30T08:59:42;14.60;99.90
22321;DHT22;11328;53.928;18.522;2023-03-30T09:02:23;14.80;99.90
22321;DHT22;11328;53.928;18.522;2023-03-30T09:07:41;15.10;99.90
22321;DHT22;11328;53.928;18.522;2023-03-30T09:10:18;15.20;99.90
22321;DHT22;11328;53.928;18.522;2023-03-30T09:12:56;15.20;99.90
22321;DHT22;11328;53.928;18.522;2023-03-30T09:15:35;15.40;99.90
22321;DHT22;11328;53.928;18.522;2023-03-30T09:18:21;15.60;99.90
22321;DHT22;11328;53.928;18.522;2023-03-30T09:20:52;15.50;99.90
22321;DHT22;11328;53.928;18.522;2023-03-30T09:23:22;15.30;99.90
22321;DHT22;11328;53.928;18.522;2023-03-30T09:26:05;15.30;99.90
22321;DHT22;11328;53.928;18.522;2023-03-30T09:29:21;15.30;99.90
22321;DHT22;11328;53.928;18.522;2023-03-30T09:35:23;15.60;99.90
22321;DHT22;11328;53.928;18.522;2023-03-30T09:37:57;15.70;99.90
22321;DHT22;11328;53.928;18.522;2023-03-30T09:40:55;15.60;99.90
22321;DHT22;11328;53.928;18.522;2023-03-30T09:43:33;15.50;99.90
22321;DHT22;11328;53.928;18.522;2023-03-30T09:46:05;15.50;99.90
22321;DHT22;11328;53.928;18.522;2023-03-30T09:48:44;15.50;99.90
22321;DHT22;11328;53.928;18.522;2023-03-30T09:51:21;15.50;99.90
22321;DHT22;11328;53.928;18.522;2023-03-30T09:53:58;15.50;99.90
22321;DHT22;11328;53.928;18.522;2023-03-30T09:59:20;15.60;99.90
22321;DHT22;11328;53.928;18.522;2023-03-30T10:07:22;15.80;99.90
22321;DHT22;11328;53.928;18.522;2023-03-30T10:09:52;15.80;99.90
22321;DHT22;11328;53.928;18.522;2023-03-30T10:12:22;15.60;99.90
22321;DHT22;11328;53.928;18.522;2023-03-30T10:15:02;15.50;99.90
22321;DHT22;11328;53.928;18.522;2023-03-30T10:17:30;15.50;99.90
22321;DHT22;11328;53.928;18.522;2023-03-30T10:20:22;15.60;99.90
22321;DHT22;11328;53.928;18.522;2023-03-30T10:23:03;15.60;99.90
22321;DHT22;11328;53.928;18.522;2023-03-30T10:25:42;15.60;99.90
22321;DHT22;11328;53.928;18.522;2023-03-30T10:28:18;15.60;99.90
22321;DHT22;11328;53.928;18.522;2023-03-30T10:30:56;15.70;99.90
22321;DHT22;11328;53.928;18.522;2023-03-30T10:33:27;15.70;99.90
22321;DHT22;11328;53.928;18.522;2023-03-30T10:35:58;15.80;99.90
22321;DHT22;11328;53.928;18.522;2023-03-30T10:38:30;15.70;99.90
22321;DHT22;11328;53.928;18.522;2023-03-30T10:41:07;15.40;99.90
22321;DHT22;11328;53.928;18.522;2023-03-30T10:43:38;15.20;99.90
22321;DHT22;11328;53.928;18.522;2023-03-30T10:48:57;15.00;99.90
22321;DHT22;11328;53.928;18.522;2023-03-30T10:52:33;15.00;99.90
22321;DHT22;11328;53.928;18.522;2023-03-30T10:55:05;15.10;99.90
22321;DHT22;11328;53.928;18.522;2023-03-30T11:03:27;14.90;99.90
22321;DHT22;11328;53.928;18.522;2023-03-30T11:06:13;14.90;99.90
22321;DHT22;11328;53.928;18.522;2023-03-30T11:08:47;14.90;99.90
22321;DHT22;11328;53.928;18.522;2023-03-30T11:11:21;14.90;99.90
22321;DHT22;11328;53.928;18.522;2023-03-30T11:13:59;15.00;99.90
22321;DHT22;11328;53.928;18.522;2023-03-30T11:16:41;15.00;99.90
22321;DHT22;11328;53.928;18.522;2023-03-30T11:19:22;15.00;99.90
22321;DHT22;11328;53.928;18.522;2023-03-30T11:21:54;15.10;99.90
22321;DHT22;11328;53.928;18.522;2023-03-30T11:24:23;15.00;99.90
22321;DHT22;11328;53.928;18.522;2023-03-30T11:27:16;15.10;99.90
22321;DHT22;11328;53.928;18.522;2023-03-30T11:29:52;15.30;99.90
22321;DHT22;11328;53.928;18.522;2023-03-30T11:32:36;15.40;99.90
22321;DHT22;11328;53.928;18.522;2023-03-30T11:35:35;15.40;99.90
22321;DHT22;11328;53.928;18.522;2023-03-30T11:38:20;15.40;99.90
22321;DHT22;11328;53.928;18.522;2023-03-30T11:40:57;15.50;99.90
22321;DHT22;11328;53.928;18.522;2023-03-30T11:43:30;15.40;99.90
22321;DHT22;11328;53.928;18.522;2023-03-30T11:46:17;15.30;99.90
22321;DHT22;11328;53.928;18.522;2023-03-30T11:49:37;15.30;99.90
22321;DHT22;11328;53.928;18.522;2023-03-30T11:52:20;15.20;99.90
22321;DHT22;11328;53.928;18.522;2023-03-30T11:57:58;15.20;99.90
22321;DHT22;11328;53.928;18.522;2023-03-30T12:06:19;15.30;99.90
22321;DHT22;11328;53.928;18.522;2023-03-30T12:12:35;15.00;99.90
22321;DHT22;11328;53.928;18.522;2023-03-30T12:17:50;14.80;99.90
22321;DHT22;11328;53.928;18.522;2023-03-30T12:20:46;14.80;99.90
22321;DHT22;11328;53.928;18.522;2023-03-30T12:23:29;14.90;99.90
22321;DHT22;11328;53.928;18.522;2023-03-30T12:26:25;14.80;99.90
22321;DHT22;11328;53.928;18.522;2023-03-30T12:34:23;14.70;99.90
22321;DHT22;11328;53.928;18.522;2023-03-30T12:36:57;14.70;99.90
22321;DHT22;11328;53.928;18.522;2023-03-30T12:39:39;14.80;99.90
22321;DHT22;11328;53.928;18.522;2023-03-30T12:42:30;14.90;99.90
22321;DHT22;11328;53.928;18.522;2023-03-30T12:47:59;15.00;99.90
22321;DHT22;11328;53.928;18.522;2023-03-30T12:53:51;14.90;99.90
22321;DHT22;11328;53.928;18.522;2023-03-30T13:05:37;14.60;99.90
22321;DHT22;11328;53.928;18.522;2023-03-30T13:32:42;14.20;99.90
22321;DHT22;11328;53.928;18.522;2023-03-30T13:41:23;13.90;99.90
22321;DHT22;11328;53.928;18.522;2023-03-30T13:49:56;13.90;99.90
22321;DHT22;11328;53.928;18.522;2023-03-30T13:52:31;13.90;99.90
22321;DHT22;11328;53.928;18.522;2023-03-30T13:55:14;13.90;99.90
22321;DHT22;11328;53.928;18.522;2023-03-30T13:57:44;13.90;99.90
22321;DHT22;11328;53.928;18.522;2023-03-30T14:00:25;13.90;99.90
22321;DHT22;11328;53.928;18.522;2023-03-30T14:03:39;13.90;99.90
22321;DHT22;11328;53.928;18.522;2023-03-30T14:06:28;13.90;99.90
22321;DHT22;11328;53.928;18.522;2023-03-30T14:11:36;13.80;99.90
22321;DHT22;11328;53.928;18.522;2023-03-30T14:14:42;13.80;99.90
22321;DHT22;11328;53.928;18.522;2023-03-30T14:17:20;13.70;99.90
22321;DHT22;11328;53.928;18.522;2023-03-30T14:22:47;13.60;99.90
22321;DHT22;11328;53.928;18.522;2023-03-30T14:25:28;13.50;99.90
22321;DHT22;11328;53.928;18.522;2023-03-30T14:28:15;13.50;99.90
22321;DHT22;11328;53.928;18.522;2023-03-30T14:30:55;13.50;99.90
22321;DHT22;11328;53.928;18.522;2023-03-30T14:33:24;13.50;99.90
22321;DHT22;11328;53.928;18.522;2023-03-30T14:35:54;13.50;99.90
22321;DHT22;11328;53.928;18.522;2023-03-30T14:38:33;13.50;99.90
22321;DHT22;11328;53.928;18.522;2023-03-30T14:41:09;13.60;99.90
22321;DHT22;11328;53.928;18.522;2023-03-30T14:46:24;13.70;99.90
22321;DHT22;11328;53.928;18.522;2023-03-30T14:48:57;13.70;99.90
22321;DHT22;11328;53.928;18.522;2023-03-30T14:51:37;13.70;99.90
22321;DHT22;11328;53.928;18.522;2023-03-30T14:54:12;13.70;99.90
22321;DHT22;11328;53.928;18.522;2023-03-30T14:56:44;13.70;99.90
22321;DHT22;11328;53.928;18.522;2023-03-30T14:59:40;13.70;99.90
22321;DHT22;11328;53.928;18.522;2023-03-30T15:02:19;13.80;99.90
22321;DHT22;11328;53.928;18.522;2023-03-30T15:04:48;13.80;99.90
22321;DHT22;11328;53.928;18.522;2023-03-30T15:07:17;13.70;99.90
22321;DHT22;11328;53.928;18.522;2023-03-30T15:09:52;13.80;99.90
22321;DHT22;11328;53.928;18.522;2023-03-30T15:12:24;13.70;99.90
22321;DHT22;11328;53.928;18.522;2023-03-30T15:14:58;13.80;99.90
22321;DHT22;11328;53.928;18.522;2023-03-30T15:17:28;13.80;99.90
22321;DHT22;11328;53.928;18.522;2023-03-30T15:19:58;13.80;99.90
22321;DHT22;11328;53.928;18.522;2023-03-30T15:22:28;13.80;99.90
22321;DHT22;11328;53.928;18.522;2023-03-30T15:25:06;13.70;99.90
22321;DHT22;11328;53.928;18.522;2023-03-30T15:27:38;13.70;99.90
22321;DHT22;11328;53.928;18.522;2023-03-30T15:30:28;13.70;99.90
22321;DHT22;11328;53.928;18.522;2023-03-30T15:33:00;13.70;99.90
22321;DHT22;11328;53.928;18.522;2023-03-30T15:35:31;13.60;99.90
22321;DHT22;11328;53.928;18.522;2023-03-30T15:38:02;13.60;99.90
22321;DHT22;11328;53.928;18.522;2023-03-30T15:40:39;13.50;99.90
22321;DHT22;11328;53.928;18.522;2023-03-30T15:43:21;13.50;99.90
22321;DHT22;11328;53.928;18.522;2023-03-30T15:51:20;13.50;99.90
22321;DHT22;11328;53.928;18.522;2023-03-30T15:53:58;13.50;99.90
22321;DHT22;11328;53.928;18.522;2023-03-30T15:57:00;13.40;99.90
22321;DHT22;11328;53.928;18.522;2023-03-30T15:59:39;13.40;99.90
22321;DHT22;11328;53.928;18.522;2023-03-30T16:02:18;13.40;99.90
22321;DHT22;11328;53.928;18.522;2023-03-30T16:04:47;13.40;99.90
22321;DHT22;11328;53.928;18.522;2023-03-30T16:07:20;13.40;99.90
22321;DHT22;11328;53.928;18.522;2023-03-30T16:09:50;13.40;99.90
22321;DHT22;11328;53.928;18.522;2023-03-30T16:12:23;13.40;99.90
22321;DHT22;11328;53.928;18.522;2023-03-30T16:14:52;13.40;99.90
22321;DHT22;11328;53.928;18.522;2023-03-30T16:17:19;13.40;99.90
22321;DHT22;11328;53.928;18.522;2023-03-30T16:19:46;13.40;99.90
22321;DHT22;11328;53.928;18.522;2023-03-30T16:22:14;13.40;99.90
22321;DHT22;11328;53.928;18.522;2023-03-30T16:24:42;13.40;99.90
22321;DHT22;11328;53.928;18.522;2023-03-30T16:27:10;13.30;99.90
22321;DHT22;11328;53.928;18.522;2023-03-30T16:29:38;13.40;99.90
22321;DHT22;11328;53.928;18.522;2023-03-30T16:32:05;13.30;99.90
22321;DHT22;11328;53.928;18.522;2023-03-30T16:34:32;13.30;99.90
22321;DHT22;11328;53.928;18.522;2023-03-30T16:36:59;13.40;99.90
22321;DHT22;11328;53.928;18.522;2023-03-30T16:39:28;13.40;99.90
22321;DHT22;11328;53.928;18.522;2023-03-30T16:41:56;13.40;99.90
22321;DHT22;11328;53.928;18.522;2023-03-30T16:44:23;13.30;99.90
22321;DHT22;11328;53.928;18.522;2023-03-30T16:46:50;13.40;99.90
22321;DHT22;11328;53.928;18.522;2023-03-30T16:49:21;13.30;99.90
22321;DHT22;11328;53.928;18.522;2023-03-30T16:51:50;13.40;99.90
22321;DHT22;11328;53.928;18.522;2023-03-30T16:54:21;13.40;99.90
22321;DHT22;11328;53.928;18.522;2023-03-30T16:56:59;13.30;99.90
22321;DHT22;11328;53.928;18.522;2023-03-30T16:59:28;13.20;99.90
22321;DHT22;11328;53.928;18.522;2023-03-30T17:01:56;13.30;99.90
22321;DHT22;11328;53.928;18.522;2023-03-30T17:04:24;13.30;99.90
22321;DHT22;11328;53.928;18.522;2023-03-30T17:06:52;13.30;99.90
22321;DHT22;11328;53.928;18.522;2023-03-30T17:09:20;13.20;99.90
22321;DHT22;11328;53.928;18.522;2023-03-30T17:11:47;13.10;99.90
22321;DHT22;11328;53.928;18.522;2023-03-30T17:14:17;13.20;99.90
22321;DHT22;11328;53.928;18.522;2023-03-30T17:16:45;13.10;99.90
22321;DHT22;11328;53.928;18.522;2023-03-30T17:19:13;13.10;99.90
22321;DHT22;11328;53.928;18.522;2023-03-30T17:21:40;13.10;99.90
22321;DHT22;11328;53.928;18.522;2023-03-30T17:24:12;13.00;99.90
22321;DHT22;11328;53.928;18.522;2023-03-30T17:26:40;12.90;99.90
22321;DHT22;11328;53.928;18.522;2023-03-30T17:29:08;12.90;99.90
22321;DHT22;11328;53.928;18.522;2023-03-30T17:31:36;13.00;99.90
22321;DHT22;11328;53.928;18.522;2023-03-30T17:34:04;13.00;99.90
22321;DHT22;11328;53.928;18.522;2023-03-30T17:36:32;13.00;99.90
22321;DHT22;11328;53.928;18.522;2023-03-30T17:38:59;13.00;99.90
22321;DHT22;11328;53.928;18.522;2023-03-30T17:41:30;13.00;99.90
22321;DHT22;11328;53.928;18.522;2023-03-30T17:43:59;13.00;99.90
22321;DHT22;11328;53.928;18.522;2023-03-30T17:46:26;13.00;99.90
22321;DHT22;11328;53.928;18.522;2023-03-30T17:48:53;13.00;99.90
22321;DHT22;11328;53.928;18.522;2023-03-30T17:51:20;13.00;99.90
22321;DHT22;11328;53.928;18.522;2023-03-30T17:53:47;13.00;99.90
22321;DHT22;11328;53.928;18.522;2023-03-30T17:56:14;13.00;99.90
22321;DHT22;11328;53.928;18.522;2023-03-30T17:58:41;13.00;99.90
22321;DHT22;11328;53.928;18.522;2023-03-30T18:01:08;13.00;99.90
22321;DHT22;11328;53.928;18.522;2023-03-30T18:03:38;13.00;99.90
22321;DHT22;11328;53.928;18.522;2023-03-30T18:06:06;13.00;99.90
22321;DHT22;11328;53.928;18.522;2023-03-30T18:08:33;13.10;99.90
22321;DHT22;11328;53.928;18.522;2023-03-30T18:11:01;13.10;99.90
22321;DHT22;11328;53.928;18.522;2023-03-30T18:13:30;13.10;99.90
22321;DHT22;11328;53.928;18.522;2023-03-30T18:15:58;13.10;99.90
22321;DHT22;11328;53.928;18.522;2023-03-30T18:18:28;13.10;99.90
22321;DHT22;11328;53.928;18.522;2023-03-30T18:21:00;13.10;99.90
22321;DHT22;11328;53.928;18.522;2023-03-30T18:23:31;13.00;99.90